Time;durP1;ratioP1;P1;durP2;ratioP2;P2;SDS_P1;SDS_P2;PMS_P1;PMS_P2;Temp;Humidity;BMP_temperature;BMP_pressure;BME280_temperature;BME280_humidity;BME280_pressure;Samples;Min_cycle;Max_cycle;Signal;HPM_P1;HPM_P2
2022/03/28 00:02:27;;;;;;;8.77;4.47;;;;;;;;;;6219288;28;20044;-75
2022/03/28 00:05:32;;;;;;;9.52;4.60;;;;;;;;;;6218613;28;20037;-75
2022/03/28 00:08:35;;;;;;;9.93;5.78;;;;;;;;;;6233194;28;20132;-75
2022/03/28 00:11:38;;;;;;;11.65;4.97;;;;;;;;;;6218703;28;20046;-76
2022/03/28 00:14:40;;;;;;;7.90;4.25;;;;;;;;;;6219826;28;20050;-75
2022/03/28 00:17:44;;;;;;;9.38;4.35;;;;;;;;;;6233978;28;20397;-75
2022/03/28 00:20:49;;;;;;;10.70;4.72;;;;;;;;;;6233242;28;20046;-76
2022/03/28 00:23:52;;;;;;;10.27;4.93;;;;;;;;;;6218963;28;20104;-75
2022/03/28 00:26:56;;;;;;;9.45;4.35;;;;;;;;;;6233567;28;20042;-76
2022/03/28 00:30:02;;;;;;;7.40;3.80;;;;;;;;;;6217175;28;20408;-76
2022/03/28 00:33:05;;;;;;;9.68;4.45;;;;;;;;;;6217109;28;20350;-76
2022/03/28 00:36:09;;;;;;;7.07;3.78;;;;;;;;;;6219029;28;20052;-76
2022/03/28 00:39:12;;;;;;;8.70;3.50;;;;;;;;;;6218481;28;20484;-74
2022/03/28 00:42:15;;;;;;;7.93;4.30;;;;;;;;;;6217656;28;20042;-75
2022/03/28 00:45:19;;;;;;;9.45;4.43;;;;;;;;;;6218693;28;20050;-75
2022/03/28 00:48:22;;;;;;;9.15;3.35;;;;;;;;;;6218726;28;20072;-75
2022/03/28 00:51:26;;;;;;;6.85;3.47;;;;;;;;;;6217549;28;20042;-76
2022/03/28 00:54:29;;;;;;;7.07;3.13;;;;;;;;;;6233169;28;20050;-76
2022/03/28 00:57:32;;;;;;;13.80;3.53;;;;;;;;;;6218754;28;20060;-77
2022/03/28 01:00:35;;;;;;;12.70;3.30;;;;;;;;;;6217915;28;20050;-76
2022/03/28 01:03:38;;;;;;;8.63;3.08;;;;;;;;;;6232451;28;20045;-77
2022/03/28 01:06:43;;;;;;;8.70;3.70;;;;;;;;;;6218372;28;20041;-76
2022/03/28 01:09:46;;;;;;;6.32;2.92;;;;;;;;;;6218506;28;20160;-74
2022/03/28 01:12:49;;;;;;;9.60;2.90;;;;;;;;;;6217193;28;20053;-76
2022/03/28 01:15:55;;;;;;;10.45;3.20;;;;;;;;;;6217912;28;20046;-76
2022/03/28 01:18:57;;;;;;;6.18;3.22;;;;;;;;;;6218317;28;20092;-76
2022/03/28 01:22:04;;;;;;;5.25;2.90;;;;;;;;;;6217203;28;20129;-76
2022/03/28 01:25:08;;;;;;;9.40;3.47;;;;;;;;;;6217408;28;20042;-75
2022/03/28 01:28:11;;;;;;;6.72;2.83;;;;;;;;;;6217331;28;20514;-75
2022/03/28 01:31:14;;;;;;;6.38;3.25;;;;;;;;;;6218351;28;20046;-75
2022/03/28 01:34:20;;;;;;;6.00;3.63;;;;;;;;;;6217083;28;20052;-76
2022/03/28 01:37:24;;;;;;;6.78;3.08;;;;;;;;;;6218052;28;20050;-75
2022/03/28 01:40:30;;;;;;;9.32;3.17;;;;;;;;;;6221351;28;20054;-75
2022/03/28 01:43:33;;;;;;;8.90;2.80;;;;;;;;;;6221852;28;20053;-75
2022/03/28 01:46:40;;;;;;;6.25;3.10;;;;;;;;;;6222155;28;20049;-75
2022/03/28 01:49:43;;;;;;;5.60;2.70;;;;;;;;;;6221712;28;20477;-75
2022/03/28 01:52:47;;;;;;;6.43;3.25;;;;;;;;;;6222627;28;20096;-74
2022/03/28 01:55:50;;;;;;;6.60;2.95;;;;;;;;;;6222169;28;20058;-75
2022/03/28 01:58:53;;;;;;;10.07;3.30;;;;;;;;;;6221535;28;20045;-76
2022/03/28 02:01:59;;;;;;;9.27;2.90;;;;;;;;;;6237984;28;20050;-76
2022/03/28 02:05:04;;;;;;;7.07;3.53;;;;;;;;;;6220732;28;20041;-73
2022/03/28 02:08:09;;;;;;;4.32;2.75;;;;;;;;;;6220082;28;20042;-74
2022/03/28 02:11:12;;;;;;;5.82;2.75;;;;;;;;;;6221470;28;20046;-74
2022/03/28 02:14:15;;;;;;;4.53;2.45;;;;;;;;;;6236687;28;20046;-76
2022/03/28 02:17:22;;;;;;;6.05;2.95;;;;;;;;;;6221308;28;20050;-76
2022/03/28 02:20:25;;;;;;;10.57;3.42;;;;;;;;;;6221767;28;20382;-75
2022/03/28 02:23:30;;;;;;;6.75;3.40;;;;;;;;;;6237214;28;20049;-77
2022/03/28 02:26:33;;;;;;;5.53;3.35;;;;;;;;;;6220526;28;20057;-77
2022/03/28 02:29:36;;;;;;;9.27;3.45;;;;;;;;;;6220384;28;20050;-75
2022/03/28 02:32:39;;;;;;;8.30;3.30;;;;;;;;;;6221726;28;20049;-75
2022/03/28 02:35:41;;;;;;;7.30;3.03;;;;;;;;;;6221059;28;20408;-74
2022/03/28 02:38:46;;;;;;;6.70;3.42;;;;;;;;;;6220738;28;20046;-75
2022/03/28 02:41:49;;;;;;;5.85;3.40;;;;;;;;;;6222009;28;20053;-77
2022/03/28 02:44:52;;;;;;;9.30;3.67;;;;;;;;;;6221018;28;20057;-74
2022/03/28 02:47:55;;;;;;;12.80;3.70;;;;;;;;;;6220235;28;20050;-75
2022/03/28 02:50:58;;;;;;;9.90;2.88;;;;;;;;;;6235969;28;20058;-78
2022/03/28 02:54:02;;;;;;;8.23;4.40;;;;;;;;;;6220046;28;20045;-76
2022/03/28 02:57:05;;;;;;;5.82;3.05;;;;;;;;;;6220514;28;20050;-74
2022/03/28 03:00:10;;;;;;;7.55;3.45;;;;;;;;;;6220375;28;20050;-75
2022/03/28 03:03:13;;;;;;;9.75;3.50;;;;;;;;;;6221193;28;20046;-75
2022/03/28 03:06:16;;;;;;;9.73;3.75;;;;;;;;;;6220535;28;20050;-75
2022/03/28 03:09:22;;;;;;;;;;;;;;;;;;6220356;28;20046;-77
2022/03/28 03:12:26;;;;;;;8.35;3.50;;;;;;;;;;6220637;28;19921;-75
2022/03/28 03:15:29;;;;;;;10.05;3.85;;;;;;;;;;6236361;28;20064;-76
2022/03/28 03:18:32;;;;;;;8.07;4.00;;;;;;;;;;6219846;28;20053;-75
2022/03/28 03:21:35;;;;;;;14.05;3.67;;;;;;;;;;6220048;28;20401;-75
2022/03/28 03:24:37;;;;;;;11.18;3.67;;;;;;;;;;6220643;28;20419;-76
2022/03/28 03:27:42;;;;;;;10.93;3.47;;;;;;;;;;6219561;28;20068;-76
2022/03/28 03:30:48;;;;;;;54.00;6.68;;;;;;;;;;6234608;28;20409;-77
2022/03/28 03:33:51;;;;;;;13.93;3.63;;;;;;;;;;6220240;28;20420;-75
2022/03/28 03:36:53;;;;;;;12.15;4.18;;;;;;;;;;6219946;28;20052;-76
2022/03/28 03:40:02;;;;;;;8.05;4.35;;;;;;;;;;6218989;28;20050;-76
2022/03/28 03:43:07;;;;;;;9.93;4.10;;;;;;;;;;6218072;28;20060;-76
2022/03/28 03:46:10;;;;;;;6.53;3.67;;;;;;;;;;6220906;28;20072;-74
2022/03/28 03:49:13;;;;;;;8.98;4.00;;;;;;;;;;6218813;28;20518;-74
2022/03/28 03:52:16;;;;;;;12.20;3.53;;;;;;;;;;6219110;28;20042;-75
2022/03/28 03:55:19;;;;;;;8.60;4.00;;;;;;;;;;6220179;28;20050;-75
2022/03/28 03:58:24;;;;;;;9.45;3.72;;;;;;;;;;6219191;28;20037;-74
2022/03/28 04:01:27;;;;;;;11.55;3.67;;;;;;;;;;6217718;28;20499;-74
2022/03/28 04:04:30;;;;;;;10.10;3.40;;;;;;;;;;6233826;28;20097;-75
2022/03/28 04:07:33;;;;;;;12.45;3.75;;;;;;;;;;6233346;28;20048;-75
2022/03/28 04:10:36;;;;;;;20.80;4.25;;;;;;;;;;6216907;28;20061;-75
2022/03/28 04:13:41;;;;;;;9.95;3.50;;;;;;;;;;6233708;28;20050;-74
2022/03/28 04:16:44;;;;;;;10.90;3.58;;;;;;;;;;6217907;28;20045;-74
2022/03/28 04:19:47;;;;;;;9.85;3.97;;;;;;;;;;6218205;28;20056;-75
2022/03/28 04:22:52;;;;;;;12.02;5.45;;;;;;;;;;6232825;28;20052;-74
2022/03/28 04:25:55;;;;;;;7.18;3.30;;;;;;;;;;6218580;28;20128;-74
2022/03/28 04:29:02;;;;;;;8.13;4.10;;;;;;;;;;6233697;28;20050;-74
2022/03/28 04:32:05;;;;;;;11.65;3.85;;;;;;;;;;6216820;28;20488;-74
2022/03/28 04:35:09;;;;;;;10.27;3.75;;;;;;;;;;6218715;28;20061;-75
2022/03/28 04:38:11;;;;;;;11.00;3.70;;;;;;;;;;6218897;28;20048;-74
2022/03/28 04:41:14;;;;;;;10.60;3.92;;;;;;;;;;6217917;28;20042;-74
2022/03/28 04:44:21;;;;;;;9.13;3.33;;;;;;;;;;6217503;28;20390;-74
2022/03/28 04:47:27;;;;;;;12.35;3.70;;;;;;;;;;6218623;28;20452;-84
2022/03/28 04:50:29;;;;;;;9.30;3.40;;;;;;;;;;6218563;28;20121;-78
2022/03/28 04:53:32;;;;;;;8.68;3.40;;;;;;;;;;6218088;28;20083;-87
2022/03/28 04:56:35;;;;;;;9.20;3.85;;;;;;;;;;6218496;28;20052;-81
2022/03/28 04:59:40;;;;;;;7.78;3.40;;;;;;;;;;6218621;28;20050;-78
2022/03/28 05:02:44;;;;;;;7.97;3.45;;;;;;;;;;6217302;28;20052;-77
2022/03/28 05:05:49;;;;;;;12.85;4.13;;;;;;;;;;6217364;28;20034;-76
2022/03/28 05:08:52;;;;;;;13.15;4.60;;;;;;;;;;6218406;28;20050;-76
2022/03/28 05:11:55;;;;;;;14.85;5.15;;;;;;;;;;6217074;28;20045;-77
2022/03/28 05:14:59;;;;;;;12.32;5.07;;;;;;;;;;6215554;28;20052;-78
2022/03/28 05:18:05;;;;;;;15.73;4.97;;;;;;;;;;6216513;28;20041;-77
2022/03/28 05:21:08;;;;;;;16.45;5.65;;;;;;;;;;6233217;28;20046;-76
2022/03/28 05:24:11;;;;;;;12.10;5.68;;;;;;;;;;6216659;28;20046;-77
2022/03/28 05:27:14;;;;;;;14.57;6.07;;;;;;;;;;6217549;28;20083;-79
2022/03/28 05:30:19;;;;;;;13.13;5.47;;;;;;;;;;6217984;28;20424;-78
2022/03/28 05:33:22;;;;;;;15.15;5.35;;;;;;;;;;6217273;28;20065;-78
2022/03/28 05:36:25;;;;;;;13.32;5.45;;;;;;;;;;6216362;28;20501;-77
2022/03/28 05:39:28;;;;;;;19.85;4.70;;;;;;;;;;6217488;28;20048;-77
2022/03/28 05:42:34;;;;;;;12.02;4.55;;;;;;;;;;6232990;28;20100;-78
2022/03/28 05:45:38;;;;;;;11.38;4.60;;;;;;;;;;6216368;28;20093;-77
2022/03/28 05:48:44;;;;;;;11.73;4.32;;;;;;;;;;6216946;28;20054;-77
2022/03/28 05:51:49;;;;;;;21.85;6.50;;;;;;;;;;6217487;28;20050;-78
2022/03/28 05:54:52;;;;;;;9.05;4.38;;;;;;;;;;6216618;28;20057;-79
2022/03/28 05:57:55;;;;;;;13.98;4.80;;;;;;;;;;6214858;28;20046;-76
2022/03/28 06:01:00;;;;;;;16.45;4.85;;;;;;;;;;6217297;28;20496;-83
2022/03/28 06:04:05;;;;;;;11.13;4.80;;;;;;;;;;6217402;28;20488;-80
2022/03/28 06:07:09;;;;;;;12.63;5.93;;;;;;;;;;6214384;28;20078;-80
2022/03/28 06:10:11;;;;;;;13.95;5.60;;;;;;;;;;6216506;28;20045;-80
2022/03/28 06:13:16;;;;;;;14.30;5.78;;;;;;;;;;6216246;28;20045;-80
2022/03/28 06:16:20;;;;;;;17.65;6.53;;;;;;;;;;6216232;28;20401;-80
2022/03/28 06:19:23;;;;;;;17.35;6.18;;;;;;;;;;6231226;28;20492;-81
2022/03/28 06:22:26;;;;;;;13.45;6.72;;;;;;;;;;6217178;28;20045;-80
2022/03/28 06:25:32;;;;;;;13.88;7.05;;;;;;;;;;6217590;28;20042;-80
2022/03/28 06:28:35;;;;;;;16.15;6.90;;;;;;;;;;6220353;28;20042;-80
2022/03/28 06:31:40;;;;;;;17.77;7.38;;;;;;;;;;6220806;28;20050;-82
2022/03/28 06:34:48;;;;;;;22.50;10.55;;;;;;;;;;6221677;28;20057;-83
2022/03/28 06:37:53;;;;;;;15.98;7.35;;;;;;;;;;6235870;28;20130;-81
2022/03/28 06:40:56;;;;;;;23.63;8.23;;;;;;;;;;6220429;28;20045;-79
2022/03/28 06:43:59;;;;;;;16.95;8.40;;;;;;;;;;6221115;28;20116;-81
2022/03/28 06:47:03;;;;;;;17.50;7.47;;;;;;;;;;6220592;28;20172;-79
2022/03/28 06:50:07;;;;;;;18.98;7.65;;;;;;;;;;6219828;28;20061;-78
2022/03/28 06:53:10;;;;;;;14.80;7.90;;;;;;;;;;6220670;28;20052;-80
2022/03/28 06:56:13;;;;;;;15.68;8.02;;;;;;;;;;6235742;28;20485;-77
2022/03/28 06:59:16;;;;;;;16.73;7.63;;;;;;;;;;6219382;28;20073;-78
2022/03/28 07:02:20;;;;;;;14.35;6.68;;;;;;;;;;6220450;28;20042;-78
2022/03/28 07:05:23;;;;;;;17.02;6.85;;;;;;;;;;6220931;28;20054;-79
2022/03/28 07:08:26;;;;;;;21.75;6.97;;;;;;;;;;6220032;28;20061;-80
2022/03/28 07:11:29;;;;;;;13.20;6.40;;;;;;;;;;6219598;28;20116;-78
2022/03/28 07:14:32;;;;;;;12.73;5.72;;;;;;;;;;6220682;28;20056;-77
2022/03/28 07:17:46;;;;;;;15.52;6.05;;;;;;;;;;6220354;28;20046;-80
2022/03/28 07:20:50;;;;;;;14.70;6.35;;;;;;;;;;6219481;28;20049;-79
2022/03/28 07:23:53;;;;;;;12.48;5.22;;;;;;;;;;6234841;28;20056;-78
2022/03/28 07:26:56;;;;;;;13.82;6.10;;;;;;;;;;6235277;28;20052;-77
2022/03/28 07:29:59;;;;;;;16.00;6.15;;;;;;;;;;6234317;28;20402;-79
2022/03/28 07:33:03;;;;;;;17.17;5.88;;;;;;;;;;6219355;28;20050;-81
2022/03/28 07:36:07;;;;;;;14.13;6.28;;;;;;;;;;6220469;28;20046;-78
2022/03/28 07:39:11;;;;;;;15.18;5.88;;;;;;;;;;6219678;28;20046;-78
2022/03/28 07:42:16;;;;;;;12.43;6.00;;;;;;;;;;6218250;28;20046;-78
2022/03/28 07:45:23;;;;;;;;;;;;;;;;;;6220024;28;20046;-77
2022/03/28 07:48:27;;;;;;;15.13;6.47;;;;;;;;;;6219922;28;19927;-78
2022/03/28 07:51:30;;;;;;;18.75;6.68;;;;;;;;;;6218761;28;20042;-79
2022/03/28 07:54:33;;;;;;;14.43;6.07;;;;;;;;;;6218714;28;20167;-78
2022/03/28 07:57:37;;;;;;;20.50;6.63;;;;;;;;;;6219826;28;20053;-76
2022/03/28 08:00:40;;;;;;;14.60;5.68;;;;;;;;;;6218997;28;20042;-75
2022/03/28 08:03:44;;;;;;;14.90;6.38;;;;;;;;;;6218364;28;20050;-77
2022/03/28 08:06:47;;;;;;;21.10;6.97;;;;;;;;;;6218222;28;20046;-75
2022/03/28 08:09:51;;;;;;;12.90;6.30;;;;;;;;;;6217442;28;20034;-80
2022/03/28 08:12:55;;;;;;;17.30;7.35;;;;;;;;;;6218100;28;20133;-78
2022/03/28 08:15:58;;;;;;;31.00;10.52;;;;;;;;;;6218350;28;20042;-79
2022/03/28 08:19:03;;;;;;;15.73;7.35;;;;;;;;;;6217897;28;20050;-79
2022/03/28 08:22:08;;;;;;;11.75;6.43;;;;;;;;;;6218471;28;20069;-78
2022/03/28 08:25:13;;;;;;;14.32;7.13;;;;;;;;;;6197025;28;20053;-79
2022/03/28 08:28:16;;;;;;;15.10;7.47;;;;;;;;;;6215050;28;20520;-78
2022/03/28 08:31:19;;;;;;;15.63;7.47;;;;;;;;;;6215256;28;20044;-79
2022/03/28 08:34:24;;;;;;;18.00;8.02;;;;;;;;;;6214327;28;20551;-79
2022/03/28 08:37:27;;;;;;;19.02;8.15;;;;;;;;;;6214386;28;20196;-80
2022/03/28 08:40:31;;;;;;;19.88;7.80;;;;;;;;;;6200749;28;20096;-78
2022/03/28 08:43:33;;;;;;;16.65;7.72;;;;;;;;;;6217596;28;20049;-79
2022/03/28 08:46:39;;;;;;;23.77;8.32;;;;;;;;;;6217406;28;20042;-80
2022/03/28 08:49:43;;;;;;;14.70;7.20;;;;;;;;;;6217978;28;20072;-83
2022/03/28 08:52:52;;;;;;;25.23;9.30;;;;;;;;;;6218206;28;20049;-81
2022/03/28 08:55:55;;;;;;;63.35;33.28;;;;;;;;;;6217176;28;20053;-79
2022/03/28 08:58:58;;;;;;;40.38;21.45;;;;;;;;;;6218006;28;20034;-78
2022/03/28 09:02:04;;;;;;;23.17;9.23;;;;;;;;;;6216838;28;20053;-76
2022/03/28 09:05:14;;;;;;;19.00;8.02;;;;;;;;;;6216992;28;20046;-77
2022/03/28 09:08:17;;;;;;;15.97;8.77;;;;;;;;;;6216869;28;20061;-77
2022/03/28 09:11:20;;;;;;;20.05;7.93;;;;;;;;;;6217938;28;20527;-75
2022/03/28 09:14:24;;;;;;;20.95;8.30;;;;;;;;;;6217937;28;20093;-77
2022/03/28 09:17:28;;;;;;;19.00;7.35;;;;;;;;;;6216404;28;20056;-76
2022/03/28 09:20:36;;;;;;;17.08;7.25;;;;;;;;;;6199981;28;20050;-77
2022/03/28 09:23:40;;;;;;;17.77;7.00;;;;;;;;;;6218330;28;20049;-78
2022/03/28 09:26:43;;;;;;;18.25;7.40;;;;;;;;;;6216653;28;20157;-76
2022/03/28 09:30:04;;;;;;;13.93;7.20;;;;;;;;;;6216781;28;20061;-78
2022/03/28 09:33:09;;;;;;;15.63;7.38;;;;;;;;;;6217652;28;20123;-78
2022/03/28 09:36:14;;;;;;;17.75;6.88;;;;;;;;;;6217156;28;20054;-77
2022/03/28 09:39:18;;;;;;;20.58;7.18;;;;;;;;;;6216065;28;20058;-77
2022/03/28 09:42:21;;;;;;;14.27;6.00;;;;;;;;;;6216928;28;20076;-76
2022/03/28 09:45:26;;;;;;;15.18;7.07;;;;;;;;;;6217430;28;20472;-77
2022/03/28 09:48:33;;;;;;;12.65;6.93;;;;;;;;;;6216579;28;20377;-77
2022/03/28 09:51:37;;;;;;;13.57;6.45;;;;;;;;;;6216299;28;20049;-77
2022/03/28 09:54:44;;;;;;;11.10;6.37;;;;;;;;;;6216268;28;20050;-77
2022/03/28 09:57:47;;;;;;;14.88;6.38;;;;;;;;;;6216861;28;20046;-78
2022/03/28 10:00:50;;;;;;;12.60;6.45;;;;;;;;;;6200197;28;20056;-77
2022/03/28 10:03:55;;;;;;;19.75;6.80;;;;;;;;;;6221598;28;20045;-78
2022/03/28 10:07:01;;;;;;;11.90;5.63;;;;;;;;;;6221423;28;20042;-78
2022/03/28 10:10:05;;;;;;;10.95;5.35;;;;;;;;;;6202138;28;20295;-75
2022/03/28 10:13:09;;;;;;;10.05;5.47;;;;;;;;;;6201397;28;20054;-78
2022/03/28 10:16:12;;;;;;;13.15;6.93;;;;;;;;;;6221832;28;20120;-78
2022/03/28 10:19:16;;;;;;;14.40;6.78;;;;;;;;;;6203842;28;20053;-78
2022/03/28 10:22:22;;;;;;;9.70;6.40;;;;;;;;;;6220415;28;20073;-77
2022/03/28 10:25:26;;;;;;;14.18;6.20;;;;;;;;;;6221140;28;20061;-78
2022/03/28 10:28:29;;;;;;;13.05;6.13;;;;;;;;;;6221075;28;20663;-78
2022/03/28 10:31:34;;;;;;;12.85;5.90;;;;;;;;;;6219565;28;20038;-78
2022/03/28 10:35:06;;;;;;;12.88;6.43;;;;;;;;;;6219430;28;20050;-78
2022/03/28 10:38:17;;;;;;;11.05;5.90;;;;;;;;;;6221176;28;20053;-78
2022/03/28 10:41:20;;;;;;;18.13;6.72;;;;;;;;;;6221204;28;20068;-79
2022/03/28 10:44:24;;;;;;;13.30;6.80;;;;;;;;;;6219641;28;20057;-76
2022/03/28 10:47:43;;;;;;;10.63;7.25;;;;;;;;;;6220180;28;20046;-78
2022/03/28 10:50:49;;;;;;;10.23;6.47;;;;;;;;;;6220903;28;20053;-79
2022/03/28 10:53:58;;;;;;;14.90;7.38;;;;;;;;;;6220794;28;20073;-79
2022/03/28 10:57:01;;;;;;;37.72;21.65;;;;;;;;;;6219395;28;20050;-77
2022/03/28 11:00:06;;;;;;;12.00;6.78;;;;;;;;;;6219395;28;20050;-78
2022/03/28 11:03:09;;;;;;;11.95;5.63;;;;;;;;;;6220669;28;20046;-77
2022/03/28 11:06:12;;;;;;;10.18;6.30;;;;;;;;;;6219784;28;20072;-78
2022/03/28 11:09:33;;;;;;;15.40;6.33;;;;;;;;;;6219436;28;20527;-78
2022/03/28 11:12:37;;;;;;;11.52;6.07;;;;;;;;;;6220557;28;20054;-78
2022/03/28 11:15:40;;;;;;;;;;;;;;;;;;6221352;28;20049;-78
2022/03/28 11:18:43;;;;;;;10.98;6.07;;;;;;;;;;6218986;28;19921;-78
2022/03/28 11:21:56;;;;;;;13.60;5.47;;;;;;;;;;6220187;28;20084;-79
2022/03/28 11:25:00;;;;;;;12.80;5.97;;;;;;;;;;6220432;28;20127;-78
2022/03/28 11:28:04;;;;;;;13.98;6.05;;;;;;;;;;6219421;28;20049;-78
2022/03/28 11:31:09;;;;;;;10.63;5.97;;;;;;;;;;6217811;28;20124;-79
2022/03/28 11:34:13;;;;;;;9.73;5.13;;;;;;;;;;6220600;28;20041;-78
2022/03/28 11:37:16;;;;;;;10.38;6.07;;;;;;;;;;6218638;28;20056;-79
2022/03/28 11:40:21;;;;;;;12.88;6.32;;;;;;;;;;6218666;28;20046;-77
2022/03/28 11:43:27;;;;;;;13.75;5.60;;;;;;;;;;6219528;28;20401;-77
2022/03/28 11:46:32;;;;;;;10.35;5.20;;;;;;;;;;6219977;28;20080;-79
2022/03/28 11:49:51;;;;;;;8.55;5.45;;;;;;;;;;6218890;28;20104;-79
2022/03/28 11:52:54;;;;;;;9.88;6.00;;;;;;;;;;6200623;28;20471;-80
2022/03/28 11:55:58;;;;;;;10.65;6.18;;;;;;;;;;6219753;28;20052;-79
2022/03/28 11:59:01;;;;;;;;;;;;;;;;;;6220048;28;20447;-79
2022/03/28 12:02:07;;;;;;;11.15;5.22;;;;;;;;;;6218179;28;19921;-79
2022/03/28 12:05:10;;;;;;;21.42;13.35;;;;;;;;;;6219232;28;20050;-77
2022/03/28 12:08:14;;;;;;;9.50;6.40;;;;;;;;;;6217926;28;20046;-77
2022/03/28 12:11:18;;;;;;;15.07;6.25;;;;;;;;;;6217832;28;20053;-79
2022/03/28 12:14:22;;;;;;;10.93;5.75;;;;;;;;;;6217662;28;20050;-78
2022/03/28 12:17:27;;;;;;;16.87;6.73;;;;;;;;;;6218946;28;20465;-79
2022/03/28 12:20:30;;;;;;;;;;;;;;;;;;6219291;28;20306;-80
2022/03/28 12:23:33;;;;;;;13.90;6.47;;;;;;;;;;6216241;28;19928;-78
2022/03/28 12:26:42;;;;;;;12.82;5.90;;;;;;;;;;6219011;28;20073;-79
2022/03/28 12:29:45;;;;;;;9.38;6.80;;;;;;;;;;6219003;28;20042;-79
2022/03/28 12:32:48;;;;;;;12.85;7.03;;;;;;;;;;6217378;28;20050;-80
2022/03/28 12:35:53;;;;;;;10.23;6.10;;;;;;;;;;6217481;28;20053;-79
2022/03/28 12:38:57;;;;;;;8.73;6.22;;;;;;;;;;6218740;28;20180;-82
2022/03/28 12:42:02;;;;;;;13.82;6.50;;;;;;;;;;6218309;28;20042;-80
2022/03/28 12:45:07;;;;;;;12.10;6.93;;;;;;;;;;6215592;28;20128;-81
2022/03/28 12:48:12;;;;;;;14.05;6.68;;;;;;;;;;6218305;28;20046;-80
2022/03/28 12:51:24;;;;;;;13.80;7.25;;;;;;;;;;6218343;28;20042;-81
2022/03/28 12:54:27;;;;;;;10.25;6.53;;;;;;;;;;6217106;28;20048;-79
2022/03/28 12:57:36;;;;;;;11.60;6.10;;;;;;;;;;6217780;28;20525;-80
2022/03/28 13:00:40;;;;;;;11.30;6.60;;;;;;;;;;6200943;28;20627;-78
2022/03/28 13:03:43;;;;;;;8.70;5.95;;;;;;;;;;6218548;28;20136;-79
2022/03/28 13:06:49;;;;;;;8.48;6.00;;;;;;;;;;6216761;28;20046;-79
2022/03/28 13:09:56;;;;;;;9.32;6.47;;;;;;;;;;6217942;28;20053;-79
2022/03/28 13:13:01;;;;;;;10.82;5.60;;;;;;;;;;6200312;28;20472;-79
2022/03/28 13:16:04;;;;;;;9.82;5.72;;;;;;;;;;6216618;28;20615;-79
2022/03/28 13:19:08;;;;;;;9.98;6.07;;;;;;;;;;6216993;28;20038;-77
2022/03/28 13:22:10;;;;;;;11.30;6.35;;;;;;;;;;6217909;28;20415;-76
2022/03/28 13:25:16;;;;;;;14.15;6.43;;;;;;;;;;6217198;28;20056;-76
2022/03/28 13:28:24;;;;;;;11.45;5.20;;;;;;;;;;6216995;28;20045;-77
2022/03/28 13:31:27;;;;;;;11.50;5.82;;;;;;;;;;6217680;28;20050;-78
2022/03/28 13:34:30;;;;;;;11.05;6.20;;;;;;;;;;6219012;28;20556;-76
2022/03/28 13:37:33;;;;;;;22.00;14.50;;;;;;;;;;6221151;28;20420;-74
2022/03/28 13:40:36;;;;;;;13.05;6.53;;;;;;;;;;6222390;28;20404;-76
2022/03/28 13:43:41;;;;;;;14.20;6.43;;;;;;;;;;6204860;28;20062;-76
2022/03/28 13:46:45;;;;;;;12.32;5.75;;;;;;;;;;6222098;28;20079;-77
2022/03/28 13:49:49;;;;;;;10.77;6.07;;;;;;;;;;6221054;28;20084;-77
2022/03/28 13:52:56;;;;;;;14.20;5.78;;;;;;;;;;6204414;28;20496;-74
2022/03/28 13:55:59;;;;;;;10.00;5.25;;;;;;;;;;6222159;28;20045;-77
2022/03/28 13:59:03;;;;;;;12.13;5.65;;;;;;;;;;6220859;28;20045;-75
2022/03/28 14:02:07;;;;;;;8.27;5.88;;;;;;;;;;6221586;28;20358;-75
2022/03/28 14:05:10;;;;;;;11.13;5.90;;;;;;;;;;6220765;28;20046;-79
2022/03/28 14:08:13;;;;;;;9.63;5.72;;;;;;;;;;6220734;28;20050;-78
2022/03/28 14:11:16;;;;;;;12.50;6.55;;;;;;;;;;6219496;28;20374;-79
2022/03/28 14:14:23;;;;;;;12.37;5.93;;;;;;;;;;6220316;28;20054;-79
2022/03/28 14:17:28;;;;;;;15.35;6.40;;;;;;;;;;6221603;28;20045;-79
2022/03/28 14:20:34;;;;;;;11.05;6.03;;;;;;;;;;6202643;28;20100;-78
2022/03/28 14:23:37;;;;;;;16.40;6.45;;;;;;;;;;6221085;28;20046;-78
2022/03/28 14:26:40;;;;;;;11.52;6.30;;;;;;;;;;6204336;28;20042;-79
2022/03/28 14:29:44;;;;;;;13.82;6.47;;;;;;;;;;6220714;28;20100;-80
2022/03/28 14:32:47;;;;;;;10.10;5.72;;;;;;;;;;6220594;28;20081;-80
2022/03/28 14:35:50;;;;;;;11.13;5.95;;;;;;;;;;6220377;28;20123;-80
2022/03/28 14:38:53;;;;;;;16.38;7.05;;;;;;;;;;6220924;28;20093;-81
2022/03/28 14:41:56;;;;;;;10.52;5.75;;;;;;;;;;6219648;28;20485;-81
2022/03/28 14:45:01;;;;;;;11.85;6.63;;;;;;;;;;6221309;28;20058;-80
2022/03/28 14:48:05;;;;;;;14.02;6.60;;;;;;;;;;6220615;28;20493;-80
2022/03/28 14:51:14;;;;;;;10.32;6.38;;;;;;;;;;6219656;28;20050;-80
2022/03/28 14:54:17;;;;;;;13.40;7.00;;;;;;;;;;6220467;28;20073;-81
2022/03/28 14:57:20;;;;;;;12.38;6.20;;;;;;;;;;6221190;28;20397;-80
2022/03/28 15:00:24;;;;;;;13.80;7.00;;;;;;;;;;6220482;28;20188;-79
2022/03/28 15:03:27;;;;;;;16.85;7.90;;;;;;;;;;6218227;28;20054;-81
2022/03/28 15:06:33;;;;;;;10.77;6.50;;;;;;;;;;6202944;28;20081;-80
2022/03/28 15:09:39;;;;;;;10.30;7.00;;;;;;;;;;6220426;28;20096;-80
2022/03/28 15:12:42;;;;;;;18.27;6.83;;;;;;;;;;6219102;28;20512;-79
2022/03/28 15:15:47;;;;;;;11.63;6.80;;;;;;;;;;6220133;28;20046;-79
2022/03/28 15:18:50;;;;;;;11.68;6.93;;;;;;;;;;6220324;28;20354;-79
2022/03/28 15:21:53;;;;;;;16.23;7.30;;;;;;;;;;6219475;28;20049;-79
2022/03/28 15:24:56;;;;;;;12.02;6.70;;;;;;;;;;6201612;28;20104;-78
2022/03/28 15:28:01;;;;;;;61.65;40.28;;;;;;;;;;6220108;28;20336;-78
2022/03/28 15:31:22;;;;;;;12.55;6.95;;;;;;;;;;6219038;28;20049;-79
2022/03/28 15:34:25;;;;;;;12.23;6.97;;;;;;;;;;6238216;28;20385;-74
2022/03/28 15:37:29;;;;;;;12.60;6.80;;;;;;;;;;6244648;28;20042;-80
2022/03/28 15:40:32;;;;;;;16.77;7.00;;;;;;;;;;6245299;28;20128;-79
2022/03/28 15:43:35;;;;;;;13.65;6.78;;;;;;;;;;6242967;28;20053;-80
2022/03/28 15:46:40;;;;;;;12.65;6.43;;;;;;;;;;6242881;28;20057;-81
2022/03/28 15:49:43;;;;;;;9.52;6.75;;;;;;;;;;6223303;28;20052;-79
2022/03/28 15:52:46;;;;;;;9.73;7.05;;;;;;;;;;6219380;28;20054;-79
2022/03/28 15:55:49;;;;;;;9.85;6.65;;;;;;;;;;6217043;28;20481;-81
2022/03/28 15:58:52;;;;;;;43.20;8.32;;;;;;;;;;6219161;28;20065;-79
2022/03/28 16:01:57;;;;;;;26.35;6.88;;;;;;;;;;6219539;28;20061;-77
2022/03/28 16:05:03;;;;;;;11.73;6.68;;;;;;;;;;6216961;28;20081;-78
2022/03/28 16:08:06;;;;;;;13.60;7.13;;;;;;;;;;6218614;28;20054;-79
2022/03/28 16:11:12;;;;;;;19.50;7.00;;;;;;;;;;6200388;28;20050;-78
2022/03/28 16:14:16;;;;;;;13.25;7.53;;;;;;;;;;6218998;28;20097;-78
2022/03/28 16:17:22;;;;;;;13.13;7.00;;;;;;;;;;6217593;28;20044;-78
2022/03/28 16:20:26;;;;;;;11.05;7.10;;;;;;;;;;6218774;28;20042;-80
2022/03/28 16:23:29;;;;;;;13.45;7.05;;;;;;;;;;6219130;28;20053;-79
2022/03/28 16:26:31;;;;;;;14.43;7.32;;;;;;;;;;6221155;28;20048;-76
2022/03/28 16:29:37;;;;;;;12.90;7.43;;;;;;;;;;6239739;28;20049;-78
2022/03/28 16:32:42;;;;;;;37.70;23.98;;;;;;;;;;6211594;28;20050;-77
2022/03/28 16:35:45;;;;;;;16.10;8.38;;;;;;;;;;6201773;28;20050;-76
2022/03/28 16:38:48;;;;;;;14.80;7.00;;;;;;;;;;6186986;28;20046;-78
2022/03/28 16:41:51;;;;;;;16.65;7.43;;;;;;;;;;6207037;28;20057;-79
2022/03/28 16:44:58;;;;;;;15.40;7.32;;;;;;;;;;6204878;28;20422;-79
2022/03/28 16:48:03;;;;;;;14.88;7.35;;;;;;;;;;6215118;28;20057;-77
2022/03/28 16:51:10;;;;;;;16.95;7.47;;;;;;;;;;6217759;28;20093;-78
2022/03/28 16:54:13;;;;;;;16.45;7.50;;;;;;;;;;6218130;28;20049;-77
2022/03/28 16:57:18;;;;;;;18.15;7.85;;;;;;;;;;6217328;28;20053;-79
2022/03/28 17:00:23;;;;;;;15.95;7.70;;;;;;;;;;6216892;28;20404;-79
2022/03/28 17:03:27;;;;;;;19.23;7.60;;;;;;;;;;6200455;28;20092;-78
2022/03/28 17:06:31;;;;;;;14.02;7.45;;;;;;;;;;6217805;28;20046;-78
2022/03/28 17:09:36;;;;;;;18.50;7.45;;;;;;;;;;6216384;28;20050;-79
2022/03/28 17:12:41;;;;;;;23.92;7.80;;;;;;;;;;6217696;28;20037;-80
2022/03/28 17:15:44;;;;;;;21.08;8.27;;;;;;;;;;6218195;28;20527;-80
2022/03/28 17:18:50;;;;;;;15.57;7.45;;;;;;;;;;6217407;28;20046;-77
2022/03/28 17:21:58;;;;;;;13.55;7.30;;;;;;;;;;6217246;28;20053;-75
2022/03/28 17:25:02;;;;;;;21.45;7.05;;;;;;;;;;6218668;28;20062;-81
2022/03/28 17:28:05;;;;;;;23.50;7.65;;;;;;;;;;6219294;28;20128;-86
2022/03/28 17:31:08;;;;;;;27.00;9.38;;;;;;;;;;6216290;28;20046;-78
2022/03/28 17:34:14;;;;;;;20.02;9.20;;;;;;;;;;6217848;28;20050;-80
2022/03/28 17:37:18;;;;;;;14.50;7.38;;;;;;;;;;6219707;28;20076;-78
2022/03/28 17:40:22;;;;;;;16.23;8.55;;;;;;;;;;6216239;28;20693;-79
2022/03/28 17:43:26;;;;;;;23.08;8.23;;;;;;;;;;6213794;28;20504;-76
2022/03/28 17:46:29;;;;;;;19.60;8.10;;;;;;;;;;6216537;28;20053;-80
2022/03/28 17:49:34;;;;;;;19.17;8.50;;;;;;;;;;6217002;28;20057;-76
2022/03/28 17:52:37;;;;;;;18.93;7.53;;;;;;;;;;6198288;28;20116;-84
2022/03/28 17:55:45;;;;;;;17.17;7.45;;;;;;;;;;6217639;28;20796;-82
2022/03/28 17:58:48;;;;;;;16.55;6.75;;;;;;;;;;6217815;28;20147;-81
2022/03/28 18:01:55;;;;;;;19.30;7.53;;;;;;;;;;6199614;28;20100;-83
2022/03/28 18:05:00;;;;;;;15.18;8.10;;;;;;;;;;6216772;28;20069;-83
2022/03/28 18:08:03;;;;;;;22.00;8.45;;;;;;;;;;6217417;28;20148;-83
2022/03/28 18:11:06;;;;;;;17.42;6.90;;;;;;;;;;6214728;28;20378;-81
2022/03/28 18:14:13;;;;;;;19.50;7.28;;;;;;;;;;6198814;28;20377;-84